createdAt,value
2018-07-20T00:01:29.209Z,8.23
2018-07-20T00:03:56.316Z,8.63
2018-07-20T00:06:23.444Z,9.67
2018-07-20T00:08:50.517Z,7.20
2018-07-20T00:11:17.672Z,7.90
2018-07-20T00:13:44.761Z,6.53
2018-07-20T00:16:11.932Z,6.33
2018-07-20T00:18:39.100Z,5.83
2018-07-20T00:21:06.236Z,7.10
2018-07-20T00:23:33.373Z,8.90
2018-07-20T00:26:00.571Z,8.30
2018-07-20T00:28:27.678Z,8.43
2018-07-20T00:30:54.795Z,9.23
2018-07-20T00:33:21.880Z,11.80
2018-07-20T00:35:49.028Z,6.57
2018-07-20T00:38:16.161Z,8.03
2018-07-20T00:40:43.344Z,6.03
2018-07-20T00:43:10.435Z,6.80
2018-07-20T00:45:37.644Z,8.23
2018-07-20T00:48:04.780Z,8.50
2018-07-20T00:50:31.927Z,6.47
2018-07-20T00:52:59.068Z,7.67
2018-07-20T00:55:26.187Z,7.07
2018-07-20T00:57:53.267Z,6.87
2018-07-20T01:00:20.376Z,7.43
2018-07-20T01:02:47.480Z,7.03
2018-07-20T01:05:14.655Z,8.30
2018-07-20T01:07:41.839Z,8.07
2018-07-20T01:10:08.988Z,6.90
2018-07-20T01:12:36.111Z,7.50
2018-07-20T01:15:03.930Z,8.70
2018-07-20T01:17:31.060Z,8.73
2018-07-20T01:19:58.186Z,5.40
2018-07-20T01:22:25.304Z,6.40
2018-07-20T01:24:52.542Z,4.63
2018-07-20T01:27:19.709Z,8.40
2018-07-20T01:29:46.873Z,6.60
2018-07-20T01:32:13.992Z,7.50
2018-07-20T01:34:41.124Z,23.93
2018-07-20T01:37:08.270Z,8.37
2018-07-20T01:39:35.425Z,8.17
2018-07-20T01:42:02.549Z,7.83
2018-07-20T01:44:29.681Z,6.53
2018-07-20T01:46:56.797Z,9.70
2018-07-20T01:49:23.999Z,7.57
2018-07-20T01:51:51.155Z,7.23
2018-07-20T01:54:18.245Z,7.83
2018-07-20T01:56:45.364Z,7.63
2018-07-20T01:59:12.468Z,9.43
2018-07-20T02:01:39.623Z,7.07
2018-07-20T02:04:06.800Z,8.57
2018-07-20T02:06:33.940Z,7.20
2018-07-20T02:09:01.077Z,6.80
2018-07-20T02:11:28.225Z,6.70
2018-07-20T02:13:55.319Z,8.00
2018-07-20T02:16:22.448Z,8.03
2018-07-20T02:18:49.608Z,8.63
2018-07-20T02:21:16.760Z,9.37
2018-07-20T02:23:43.872Z,6.27
2018-07-20T02:26:11.020Z,6.33
2018-07-20T02:28:38.161Z,10.63
2018-07-20T02:31:05.748Z,8.10
2018-07-20T02:33:32.866Z,8.30
2018-07-20T02:35:59.940Z,6.67
2018-07-20T02:38:27.085Z,7.00
2018-07-20T02:40:54.226Z,7.13
2018-07-20T02:43:21.393Z,7.07
2018-07-20T02:45:48.587Z,7.67
2018-07-20T02:48:15.729Z,7.63
2018-07-20T02:50:42.936Z,10.93
2018-07-20T02:53:10.104Z,6.83
2018-07-20T02:55:37.231Z,6.63
2018-07-20T02:58:04.448Z,10.03
2018-07-20T03:00:31.581Z,10.17
2018-07-20T03:02:58.685Z,7.10
2018-07-20T03:05:25.813Z,9.50
2018-07-20T03:07:52.923Z,9.93
2018-07-20T03:10:20.088Z,6.93
2018-07-20T03:12:47.209Z,7.10
2018-07-20T03:15:14.357Z,7.93
2018-07-20T03:17:41.483Z,8.50
2018-07-20T03:20:08.636Z,6.93
2018-07-20T03:22:35.856Z,6.77
2018-07-20T03:25:03.816Z,8.00
2018-07-20T03:27:30.892Z,8.40
2018-07-20T03:29:58.020Z,8.73
2018-07-20T03:32:25.125Z,8.50
2018-07-20T03:34:52.345Z,9.13
2018-07-20T03:37:19.449Z,8.37
2018-07-20T03:39:46.622Z,6.13
2018-07-20T03:42:13.772Z,11.47
2018-07-20T03:44:40.913Z,7.87
2018-07-20T03:47:08.083Z,7.67
2018-07-20T03:49:35.189Z,8.13
2018-07-20T03:52:02.304Z,9.27
2018-07-20T03:54:29.412Z,11.53
2018-07-20T03:56:56.556Z,10.60
2018-07-20T03:59:23.669Z,9.23
2018-07-20T04:01:50.896Z,6.57
2018-07-20T04:04:17.988Z,8.40
2018-07-20T04:06:45.118Z,12.10
2018-07-20T04:09:12.219Z,8.10
2018-07-20T04:11:39.840Z,7.87
2018-07-20T04:14:07.493Z,9.07
2018-07-20T04:16:34.601Z,9.83
2018-07-20T04:19:01.729Z,7.97
2018-07-20T04:21:28.844Z,8.30
2018-07-20T04:23:55.976Z,7.37
2018-07-20T04:26:23.139Z,8.87
2018-07-20T04:28:50.292Z,10.60
2018-07-20T04:31:17.690Z,8.60
2018-07-20T04:33:44.800Z,9.83
2018-07-20T04:36:11.953Z,6.90
2018-07-20T04:38:39.059Z,9.53
2018-07-20T04:41:06.287Z,9.60
2018-07-20T04:43:33.384Z,10.33
2018-07-20T04:46:00.548Z,11.53
2018-07-20T04:48:27.672Z,13.07
2018-07-20T04:50:54.803Z,7.70
2018-07-20T04:53:21.938Z,7.43
2018-07-20T04:55:49.048Z,10.77
2018-07-20T04:58:16.191Z,11.90
2018-07-20T05:00:43.353Z,11.73
2018-07-20T05:03:10.492Z,42.63
2018-07-20T05:05:37.723Z,42.53
2018-07-20T05:08:05.144Z,29.00
2018-07-20T05:10:32.267Z,21.93
2018-07-20T05:12:59.406Z,25.30
2018-07-20T05:15:26.572Z,18.97
2018-07-20T05:17:53.704Z,14.53
2018-07-20T05:20:20.880Z,13.77
2018-07-20T05:22:48.053Z,14.30
2018-07-20T05:25:15.196Z,12.07
2018-07-20T05:27:42.300Z,10.73
2018-07-20T05:30:09.473Z,14.87
2018-07-20T05:32:36.678Z,13.53
2018-07-20T05:35:04.872Z,13.53
2018-07-20T05:37:31.988Z,13.87
2018-07-20T05:39:59.111Z,13.27
2018-07-20T05:42:26.323Z,11.93
2018-07-20T05:44:53.490Z,10.80
2018-07-20T05:47:20.643Z,12.20
2018-07-20T05:49:47.741Z,10.90
2018-07-20T05:52:14.917Z,16.50
2018-07-20T05:54:42.056Z,12.33
2018-07-20T05:57:09.269Z,14.23
2018-07-20T05:59:36.399Z,12.67
2018-07-20T06:02:03.652Z,12.10
2018-07-20T06:04:30.896Z,10.17
2018-07-20T06:06:58.019Z,10.93
2018-07-20T06:09:25.164Z,12.80
2018-07-20T06:11:52.320Z,10.93
2018-07-20T06:14:19.911Z,11.83
2018-07-20T06:16:47.004Z,10.30
2018-07-20T06:19:14.208Z,14.40
2018-07-20T06:21:41.399Z,13.30
2018-07-20T06:24:08.643Z,11.93
2018-07-20T06:26:42.605Z,13.33
2018-07-20T06:29:09.737Z,11.03
2018-07-20T06:31:36.892Z,11.47
2018-07-20T06:34:04.037Z,15.70
2018-07-20T06:36:31.128Z,12.50
2018-07-20T06:38:58.274Z,11.73
2018-07-20T06:41:25.504Z,11.17
2018-07-20T06:43:52.643Z,11.63
2018-07-20T06:46:19.800Z,11.27
2018-07-20T06:48:46.944Z,11.27
2018-07-20T06:51:14.100Z,10.20
2018-07-20T06:53:41.221Z,10.50
2018-07-20T06:56:08.365Z,10.93
2018-07-20T06:58:35.494Z,9.67
2018-07-20T07:01:02.620Z,10.07
2018-07-20T07:03:29.756Z,10.57
2018-07-20T07:05:56.917Z,9.90
2018-07-20T07:08:24.121Z,10.43
2018-07-20T07:10:51.279Z,12.10
2018-07-20T07:13:18.399Z,10.40
2018-07-20T07:15:45.548Z,9.70
2018-07-20T07:18:12.732Z,10.97
2018-07-20T07:20:39.857Z,10.23
2018-07-20T07:23:06.976Z,10.20
2018-07-20T07:25:34.070Z,10.20
2018-07-20T07:28:01.192Z,9.43
2018-07-20T07:30:28.316Z,9.33
2018-07-20T07:32:55.492Z,9.40
2018-07-20T07:35:22.653Z,9.57
2018-07-20T07:37:49.779Z,9.93
2018-07-20T07:40:16.929Z,9.13
2018-07-20T07:42:44.192Z,9.17
2018-07-20T07:45:11.348Z,9.13
2018-07-20T07:47:38.492Z,8.47
2018-07-20T07:50:05.693Z,9.20
2018-07-20T07:52:32.796Z,9.50
2018-07-20T07:54:59.940Z,9.60
2018-07-20T07:57:27.109Z,11.63
2018-07-20T07:59:54.236Z,7.77
2018-07-20T08:02:21.344Z,6.73
2018-07-20T08:04:48.491Z,9.17
2018-07-20T08:07:15.658Z,8.77
2018-07-20T08:09:42.862Z,7.83
2018-07-20T08:12:09.972Z,7.00
2018-07-20T08:14:37.137Z,8.47
2018-07-20T08:17:04.323Z,9.73
2018-07-20T08:19:31.481Z,11.20
2018-07-20T08:21:58.603Z,8.13
2018-07-20T08:24:25.857Z,7.10
2018-07-20T08:26:53.036Z,11.23
2018-07-20T08:29:20.844Z,8.20
2018-07-20T08:31:47.971Z,8.70
2018-07-20T08:34:15.127Z,7.53
2018-07-20T08:36:42.228Z,8.37
2018-07-20T08:39:10.135Z,7.93
2018-07-20T08:41:37.608Z,7.60
2018-07-20T08:44:04.768Z,7.00
2018-07-20T08:46:31.977Z,9.00
2018-07-20T08:48:59.089Z,6.90
2018-07-20T08:51:26.191Z,6.83
2018-07-20T08:53:53.416Z,7.23
2018-07-20T08:56:20.480Z,7.77
2018-07-20T08:58:48.016Z,7.30
2018-07-20T09:01:14.812Z,6.97
2018-07-20T09:03:42.049Z,6.77
2018-07-20T09:06:09.259Z,7.73
2018-07-20T09:08:36.393Z,6.53
2018-07-20T09:11:03.572Z,6.67
2018-07-20T09:13:30.755Z,8.80
2018-07-20T09:15:57.880Z,6.90
2018-07-20T09:18:25.003Z,6.10
2018-07-20T09:20:52.217Z,5.90
2018-07-20T09:23:19.343Z,5.67
2018-07-20T09:25:46.448Z,6.77
2018-07-20T09:28:14.449Z,6.20
2018-07-20T09:30:41.560Z,7.70
2018-07-20T09:33:08.712Z,7.17
2018-07-20T09:35:35.909Z,7.30
2018-07-20T09:38:03.031Z,6.33
2018-07-20T09:40:30.159Z,5.33
2018-07-20T09:42:57.295Z,6.13
2018-07-20T09:45:24.401Z,6.47
2018-07-20T09:47:51.535Z,5.10
2018-07-20T09:50:18.927Z,10.23
2018-07-20T09:52:46.064Z,4.80
2018-07-20T09:55:13.228Z,4.17
2018-07-20T09:57:40.384Z,4.83
2018-07-20T10:00:07.501Z,4.60
2018-07-20T10:02:34.640Z,5.00
2018-07-20T10:05:01.858Z,5.03
2018-07-20T10:07:28.983Z,5.87
2018-07-20T10:09:56.819Z,5.30
2018-07-20T10:12:23.975Z,5.07
2018-07-20T10:14:51.127Z,5.97
2018-07-20T10:17:18.228Z,6.70
2018-07-20T10:19:45.388Z,5.53
2018-07-20T10:22:12.513Z,5.40
2018-07-20T10:24:39.692Z,5.63
2018-07-20T10:27:06.892Z,5.50
2018-07-20T10:29:34.051Z,12.50
2018-07-20T10:32:01.177Z,7.10
2018-07-20T10:34:28.341Z,5.07
2018-07-20T10:36:55.448Z,4.97
2018-07-20T10:39:22.628Z,7.60
2018-07-20T10:41:50.164Z,5.53
2018-07-20T10:44:17.308Z,5.83
2018-07-20T10:46:44.552Z,6.20
2018-07-20T10:49:11.692Z,6.40
2018-07-20T10:51:38.845Z,6.10
2018-07-20T10:54:05.965Z,5.90
2018-07-20T10:56:33.130Z,9.10
2018-07-20T10:59:00.315Z,6.63
2018-07-20T11:01:27.478Z,7.17
2018-07-20T11:03:54.728Z,5.53
2018-07-20T11:06:21.879Z,5.57
2018-07-20T11:08:49.071Z,5.60
2018-07-20T11:11:16.242Z,5.83
2018-07-20T11:13:43.431Z,5.93
2018-07-20T11:16:10.564Z,5.50
2018-07-20T11:18:37.693Z,7.27
2018-07-20T11:21:04.861Z,5.03
2018-07-20T11:23:32.010Z,6.17
2018-07-20T11:25:59.192Z,5.47
2018-07-20T11:28:26.340Z,5.83
2018-07-20T11:30:53.532Z,4.70
2018-07-20T11:33:20.679Z,5.70
2018-07-20T11:35:47.823Z,5.47
2018-07-20T11:38:14.956Z,6.83
2018-07-20T11:40:42.104Z,5.90
2018-07-20T11:43:09.233Z,6.83
2018-07-20T11:45:36.411Z,5.53
2018-07-20T11:48:03.612Z,6.00
2018-07-20T11:50:30.743Z,5.17
2018-07-20T11:52:57.840Z,6.03
2018-07-20T11:55:24.993Z,5.37
2018-07-20T11:57:52.219Z,6.30
2018-07-20T12:00:19.388Z,5.70
2018-07-20T12:02:46.560Z,5.63
2018-07-20T12:05:13.747Z,4.40
2018-07-20T12:07:40.911Z,5.93
2018-07-20T12:10:08.287Z,7.00
2018-07-20T12:12:35.439Z,6.10
2018-07-20T12:15:02.615Z,7.80
2018-07-20T12:17:29.816Z,5.53
2018-07-20T12:19:56.955Z,5.90
2018-07-20T12:22:24.100Z,6.10
2018-07-20T12:24:51.253Z,5.67
2018-07-20T12:27:18.417Z,6.03
2018-07-20T12:29:45.713Z,5.77
2018-07-20T12:32:12.946Z,9.63
2018-07-20T12:34:40.152Z,5.37
2018-07-20T12:37:07.262Z,5.77
2018-07-20T12:39:34.520Z,6.53
2018-07-20T12:42:01.813Z,5.50
2018-07-20T12:44:28.999Z,5.93
2018-07-20T12:46:56.132Z,6.90
2018-07-20T12:49:23.336Z,6.20
2018-07-20T12:51:50.490Z,5.60
2018-07-20T12:54:17.640Z,6.03
2018-07-20T12:56:44.828Z,6.07
2018-07-20T12:59:11.970Z,6.47
2018-07-20T13:01:39.197Z,6.00
2018-07-20T13:04:06.390Z,5.20
2018-07-20T13:06:33.755Z,5.40
2018-07-20T13:09:00.973Z,5.00
2018-07-20T13:11:28.157Z,6.00
2018-07-20T13:13:55.342Z,6.47
2018-07-20T13:16:22.571Z,6.37
2018-07-20T13:18:49.816Z,5.60
2018-07-20T13:21:16.980Z,6.20
2018-07-20T13:23:44.116Z,5.83
2018-07-20T13:26:11.336Z,8.90
2018-07-20T13:28:38.518Z,4.83
2018-07-20T13:31:05.774Z,5.10
2018-07-20T13:33:32.988Z,5.90
2018-07-20T13:36:00.244Z,5.80
2018-07-20T13:38:27.507Z,6.77
2018-07-20T13:40:54.689Z,5.77
2018-07-20T13:43:21.882Z,8.50
2018-07-20T13:45:49.034Z,4.67
2018-07-20T13:48:19.028Z,5.50
2018-07-20T13:50:46.260Z,6.40
2018-07-20T13:53:13.381Z,5.40
2018-07-20T13:55:40.602Z,5.40
2018-07-20T13:58:07.782Z,5.67
2018-07-20T14:00:35.018Z,6.60
2018-07-20T14:03:02.228Z,7.90
2018-07-20T14:05:29.444Z,5.90
2018-07-20T14:07:56.597Z,7.23
2018-07-20T14:10:23.862Z,5.87
2018-07-20T14:12:51.054Z,5.30
2018-07-20T14:15:18.335Z,5.40
2018-07-20T14:17:45.560Z,5.67
2018-07-20T14:20:12.789Z,4.50
2018-07-20T14:22:40.084Z,7.10
2018-07-20T14:25:07.380Z,5.30
2018-07-20T14:27:34.563Z,7.13
2018-07-20T14:30:01.918Z,5.83
2018-07-20T14:32:29.105Z,5.20
2018-07-20T14:34:56.446Z,5.60
2018-07-20T14:37:23.640Z,10.00
2018-07-20T14:39:50.864Z,5.30
2018-07-20T14:42:18.059Z,7.13
2018-07-20T14:44:45.276Z,8.80
2018-07-20T14:47:12.445Z,5.93
2018-07-20T14:49:39.618Z,5.90
2018-07-20T14:52:06.826Z,6.07
2018-07-20T14:54:34.054Z,6.40
2018-07-20T14:57:01.241Z,5.53
2018-07-20T14:59:28.929Z,5.30
2018-07-20T15:01:56.111Z,5.70
2018-07-20T15:04:23.246Z,6.13
2018-07-20T15:06:50.406Z,5.53
2018-07-20T15:09:17.608Z,6.53
2018-07-20T15:11:44.805Z,5.97
2018-07-20T15:14:12.056Z,6.03
2018-07-20T15:16:39.242Z,6.63
2018-07-20T15:19:06.454Z,5.83
2018-07-20T15:21:33.701Z,5.60
2018-07-20T15:24:00.860Z,5.97
2018-07-20T15:26:28.093Z,5.13
2018-07-20T15:28:55.208Z,5.83
2018-07-20T15:31:22.416Z,6.33
2018-07-20T15:33:49.712Z,6.00
2018-07-20T15:36:16.937Z,8.60
2018-07-20T15:38:44.095Z,7.80
2018-07-20T15:41:11.244Z,7.40
2018-07-20T15:43:39.542Z,6.23
2018-07-20T15:46:06.770Z,5.40
2018-07-20T15:48:34.264Z,5.50
2018-07-20T15:51:01.442Z,6.60
2018-07-20T15:53:36.274Z,5.77
2018-07-20T15:55:55.914Z,5.97
2018-07-20T15:58:23.098Z,5.60
2018-07-20T16:00:50.344Z,5.90
2018-07-20T16:03:17.582Z,5.70
2018-07-20T16:05:44.844Z,6.27
2018-07-20T16:08:11.989Z,5.33
2018-07-20T16:10:39.426Z,5.87
2018-07-20T16:13:06.691Z,5.70
2018-07-20T16:15:33.914Z,4.80
2018-07-20T16:18:01.081Z,5.47
2018-07-20T16:20:28.307Z,6.23
2018-07-20T16:22:55.522Z,5.43
2018-07-20T16:25:22.678Z,5.90
2018-07-20T16:27:49.886Z,6.53
2018-07-20T16:30:17.081Z,7.20
2018-07-20T16:32:44.241Z,6.70
2018-07-20T16:35:11.442Z,10.00
2018-07-20T16:37:38.590Z,6.53
2018-07-20T16:40:05.753Z,7.20
2018-07-20T16:42:32.938Z,12.73
2018-07-20T16:45:00.116Z,7.43
2018-07-20T16:47:27.301Z,7.03
2018-07-20T16:52:34.139Z,6.33
2018-07-20T16:55:01.360Z,5.80
2018-07-20T16:57:28.542Z,10.77
2018-07-20T16:59:55.727Z,5.37
2018-07-20T17:02:22.930Z,5.30
2018-07-20T17:04:50.095Z,5.77
2018-07-20T17:07:17.249Z,10.73
2018-07-20T17:09:44.422Z,6.10
2018-07-20T17:12:11.576Z,5.50
2018-07-20T17:14:38.735Z,5.97
2018-07-20T17:17:05.908Z,6.23
2018-07-20T17:19:33.086Z,10.00
2018-07-20T17:22:00.329Z,7.13
2018-07-20T17:24:27.501Z,6.37
2018-07-20T17:26:54.700Z,6.67
2018-07-20T17:29:21.931Z,6.30
2018-07-20T17:31:49.152Z,6.50
2018-07-20T17:34:16.356Z,6.40
2018-07-20T17:36:43.584Z,6.63
2018-07-20T17:39:11.694Z,6.50
2018-07-20T17:41:38.870Z,6.43
2018-07-20T17:44:06.155Z,6.10
2018-07-20T17:46:33.366Z,6.60
2018-07-20T17:49:00.588Z,6.30
2018-07-20T17:51:27.783Z,6.10
2018-07-20T17:53:54.974Z,6.77
2018-07-20T17:56:22.237Z,7.80
2018-07-20T17:58:49.335Z,5.90
2018-07-20T18:01:16.535Z,6.73
2018-07-20T18:03:43.792Z,6.77
2018-07-20T18:06:11.051Z,7.20
2018-07-20T18:08:38.226Z,5.23
2018-07-20T18:11:05.462Z,6.50
2018-07-20T18:13:32.637Z,6.30
2018-07-20T18:15:59.861Z,6.77
2018-07-20T18:18:27.039Z,5.30
2018-07-20T18:20:54.221Z,6.50
2018-07-20T18:23:21.380Z,7.63
2018-07-20T18:25:48.609Z,7.47
2018-07-20T18:28:15.790Z,7.30
2018-07-20T18:30:42.993Z,8.73
2018-07-20T18:33:10.226Z,6.50
2018-07-20T18:35:38.014Z,6.17
2018-07-20T18:38:05.197Z,7.27
2018-07-20T18:40:32.416Z,7.07
2018-07-20T18:42:59.617Z,7.00
2018-07-20T18:45:26.786Z,7.53
2018-07-20T18:47:53.981Z,6.43
2018-07-20T18:50:21.172Z,9.83
2018-07-20T18:52:48.329Z,6.37
2018-07-20T18:55:15.494Z,6.13
2018-07-20T18:57:42.708Z,9.87
2018-07-20T19:00:09.891Z,8.27
2018-07-20T19:02:37.019Z,7.40
2018-07-20T19:05:05.177Z,7.20
2018-07-20T19:07:32.359Z,6.77
2018-07-20T19:09:59.962Z,6.80
2018-07-20T19:12:27.176Z,6.30
2018-07-20T19:14:54.481Z,8.80
2018-07-20T19:17:21.656Z,8.43
2018-07-20T19:19:48.813Z,6.57
2018-07-20T19:22:15.978Z,6.33
2018-07-20T19:24:43.109Z,6.93
2018-07-20T19:27:10.309Z,8.07
2018-07-20T19:29:37.500Z,7.63
2018-07-20T19:32:04.699Z,7.93
2018-07-20T19:34:31.879Z,9.73
2018-07-20T19:36:59.090Z,8.57
2018-07-20T19:39:26.338Z,9.10
2018-07-20T19:41:53.633Z,9.00
2018-07-20T19:44:20.768Z,8.20
2018-07-20T19:46:47.860Z,8.00
2018-07-20T19:49:15.021Z,9.33
2018-07-20T19:51:42.175Z,9.07
2018-07-20T19:54:09.351Z,10.03
2018-07-20T19:56:36.545Z,8.53
2018-07-20T19:59:03.807Z,8.50
2018-07-20T20:01:31.004Z,10.67
2018-07-20T20:03:58.156Z,10.50
2018-07-20T20:06:25.337Z,11.10
2018-07-20T20:08:52.597Z,9.07
2018-07-20T20:11:19.771Z,9.47
2018-07-20T20:13:47.009Z,9.57
2018-07-20T20:16:14.361Z,9.43
2018-07-20T20:18:41.633Z,9.80
2018-07-20T20:21:08.873Z,9.90
2018-07-20T20:23:37.848Z,9.80
2018-07-20T20:26:05.149Z,8.80
2018-07-20T20:28:32.569Z,10.07
2018-07-20T20:30:59.808Z,10.53
2018-07-20T20:33:26.958Z,10.23
2018-07-20T20:35:54.147Z,10.60
2018-07-20T20:38:21.354Z,10.23
2018-07-20T20:40:48.531Z,10.80
2018-07-20T20:43:15.692Z,10.90
2018-07-20T20:45:42.892Z,9.80
2018-07-20T20:48:10.061Z,9.30
2018-07-20T20:50:37.247Z,10.93
2018-07-20T20:53:04.652Z,10.70
2018-07-20T20:55:31.880Z,9.70
2018-07-20T20:57:59.064Z,10.47
2018-07-20T21:00:26.227Z,9.77
2018-07-20T21:02:53.383Z,10.73
2018-07-20T21:05:20.545Z,12.20
2018-07-20T21:07:47.667Z,10.50
2018-07-20T21:10:14.880Z,11.13
2018-07-20T21:12:42.084Z,8.53
2018-07-20T21:15:09.200Z,10.33
2018-07-20T21:17:36.352Z,9.40
2018-07-20T21:20:04.764Z,9.40
2018-07-20T21:22:31.940Z,10.63
2018-07-20T21:24:59.049Z,11.10
2018-07-20T21:27:26.185Z,9.57
2018-07-20T21:29:53.328Z,9.67
2018-07-20T21:32:20.523Z,9.50
2018-07-20T21:34:47.704Z,9.50
2018-07-20T21:37:14.851Z,10.90
2018-07-20T21:39:42.083Z,11.13
2018-07-20T21:42:09.208Z,12.57
2018-07-20T21:44:36.347Z,11.57
2018-07-20T21:47:03.489Z,10.43
2018-07-20T21:49:30.604Z,11.83
2018-07-20T21:51:58.019Z,10.40
2018-07-20T21:54:25.198Z,10.70
2018-07-20T21:56:52.372Z,10.90
2018-07-20T21:59:19.569Z,11.80
2018-07-20T22:01:46.752Z,11.50
2018-07-20T22:04:13.856Z,11.90
2018-07-20T22:06:41.001Z,10.80
2018-07-20T22:09:09.592Z,10.30
2018-07-20T22:11:36.803Z,11.50
2018-07-20T22:14:04.053Z,11.53
2018-07-20T22:16:31.177Z,9.93
2018-07-20T22:18:58.285Z,11.23
2018-07-20T22:21:25.450Z,10.90
2018-07-20T22:23:52.525Z,11.33
2018-07-20T22:26:19.683Z,12.20
2018-07-20T22:28:46.825Z,10.57
2018-07-20T22:31:13.964Z,12.10
2018-07-20T22:33:41.093Z,11.87
2018-07-20T22:36:08.272Z,11.77
2018-07-20T22:38:35.464Z,11.70
2018-07-20T22:41:02.618Z,12.07
2018-07-20T22:43:29.736Z,10.83
2018-07-20T22:45:56.928Z,11.53
2018-07-20T22:48:24.054Z,11.87
2018-07-20T22:50:51.221Z,12.70
2018-07-20T22:53:18.349Z,11.07
2018-07-20T22:55:45.493Z,10.87
2018-07-20T22:58:12.616Z,10.30
2018-07-20T23:00:39.779Z,11.47
2018-07-20T23:03:06.930Z,12.03
2018-07-20T23:05:34.117Z,11.47
2018-07-20T23:08:01.270Z,11.07
2018-07-20T23:10:28.464Z,12.63
2018-07-20T23:12:55.561Z,13.50
2018-07-20T23:15:22.700Z,11.80
2018-07-20T23:17:49.844Z,12.67
2018-07-20T23:20:16.990Z,13.00
2018-07-20T23:22:44.152Z,11.97
2018-07-20T23:25:10.751Z,12.27
2018-07-20T23:27:37.914Z,14.37
2018-07-20T23:30:05.472Z,13.60
2018-07-20T23:32:32.671Z,12.97
2018-07-20T23:34:59.821Z,13.03
2018-07-20T23:37:27.000Z,14.17
2018-07-20T23:39:54.112Z,13.77
2018-07-20T23:42:21.264Z,12.53
2018-07-20T23:44:48.377Z,13.20
2018-07-20T23:47:15.512Z,13.60
2018-07-20T23:49:42.673Z,12.27
2018-07-20T23:52:09.835Z,12.63
2018-07-20T23:54:36.985Z,12.50
2018-07-20T23:57:04.136Z,13.63
2018-07-20T23:59:31.288Z,13.73
